Date,TemperatureHighF,TemperatureAvgF,TemperatureLowF,DewpointHighF,DewpointAvgF,DewpointLowF,HumidityHigh,HumidityAvg,HumidityLow,PressureMaxIn,PressureMinIn,WindSpeedMaxMPH,WindSpeedAvgMPH,GustSpeedMaxMPH,PrecipitationSumIn
2013-1-1,37,33,24,25,18,7,68,55,44,29.77,29.62,24,11,24,0.28
2013-1-2,31,24,16,12,7,1,54,48,43,29.91,29.77,25,11,25,0.28
2013-1-3,24,18,9,11,1,-6,61,48,43,30.00,29.88,21,8,21,0.28
2013-1-4,37,31,20,25,18,8,72,59,46,29.88,29.71,31,10,31,0.28
2013-1-5,41,32,23,25,20,17,93,62,41,30.12,29.74,22,7,22,0.28
2013-1-6,41,34,23,34,29,21,97,83,67,30.09,29.80,22,5,22,0.28
2013-1-7,40,33,22,32,26,21,97,77,59,30.27,29.83,24,7,24,0.28
2013-1-8,46,39,22,36,32,21,97,79,49,30.24,30.15,32,10,32,0.28
2013-1-9,48,38,26,44,35,25,97,88,58,30.27,29.88,32,7,32,0.28
2013-1-10,47,42,38,31,24,20,64,49,38,30.36,29.94,29,11,29,0.28
2013-1-11,46,38,30,39,31,26,97,74,51,30.36,30.09,15,5,15,0.28
2013-1-12,49,44,40,44,42,38,97,91,72,30.09,29.97,14,5,14,0.28
2013-1-13,52,47,44,49,46,43,97,95,79,30.03,29.91,15,6,15,0.28
2013-1-14,59,51,42,57,46,28,97,86,48,30.09,29.83,23,8,23,0.28
2013-1-15,44,40,38,38,34,29,95,79,58,30.15,30.06,20,6,20,0.28
2013-1-16,44,40,38,43,39,32,97,95,74,30.09,29.59,22,7,22,0.28
2013-1-17,44,38,34,37,28,19,97,69,45,29.91,29.74,23,8,23,0.28
2013-1-18,34,23,13,26,9,-1,97,56,34,30.33,29.88,35,11,35,0.28
2013-1-19,46,38,13,43,29,4,94,70,57,30.30,29.83,31,12,31,0.28
2013-1-20,52,45,30,46,32,10,97,64,38,29.83,29.47,37,14,37,0.28
2013-1-21,34,29,24,30,13,4,97,55,35,29.97,29.62,21,7,21,0.28
2013-1-22,30,23,14,29,9,-5,97,59,36,29.91,29.59,27,12,27,0.28
2013-1-23,16,12,8,-4,-7,-12,44,41,38,30.00,29.91,27,12,27,0.28
2013-1-24,19,12,5,-3,-9,-15,44,38,35,30.06,29.88,30,14,30,0.28
2013-1-25,26,17,9,13,-4,-12,72,38,34,30.15,29.88,22,8,22,0.28
2013-1-26,24,21,16,19,9,-3,88,62,38,30.06,29.83,28,11,28,0.28
2013-1-27,29,21,14,8,1,-4,48,42,36,30.30,30.06,27,12,27,0.28
2013-1-28,35,27,17,34,13,-1,97,57,31,30.30,29.85,14,5,14,0.28
2013-1-29,38,36,34,38,35,34,97,97,94,30.06,29.85,13,4,13,0.28
2013-1-30,53,46,38,52,45,37,97,96,86,30.03,29.44,29,11,29,0.28
2013-1-31,55,47,33,54,36,12,97,70,40,29.47,28.97,43,16,43,0.28